createdAt,value
2023-05-02T00:00:22.640Z,100471.63
2023-05-02T00:03:11.826Z,100475.28
2023-05-02T00:05:40.829Z,100483.19
2023-05-02T00:08:09.962Z,100460.56
2023-05-02T00:10:38.658Z,100468.75
2023-05-02T00:13:07.765Z,100470.31
2023-05-02T00:15:37.757Z,100466.13
2023-05-02T00:18:06.868Z,100461.78
2023-05-02T00:20:35.565Z,100454.00
2023-05-02T00:23:04.538Z,100458.53
2023-05-02T00:25:33.172Z,100446.34
2023-05-02T00:28:02.062Z,100449.34
2023-05-02T00:30:30.693Z,100457.16
2023-05-02T00:33:00.998Z,100452.00
2023-05-02T00:35:29.693Z,100450.00
2023-05-02T00:38:01.155Z,100449.16
2023-05-02T00:40:29.948Z,100437.91
2023-05-02T00:42:58.826Z,100453.16
2023-05-02T00:45:27.668Z,100451.63
2023-05-02T00:47:57.042Z,100442.19
2023-05-02T00:50:33.425Z,100439.47
2023-05-02T00:53:04.314Z,100445.66
2023-05-02T00:55:34.054Z,100443.00
2023-05-02T00:58:12.858Z,100443.22
2023-05-02T01:01:17.643Z,100435.50
2023-05-02T01:04:03.832Z,100427.94
2023-05-02T01:06:52.930Z,100428.97
2023-05-02T01:09:35.936Z,100428.25
2023-05-02T01:12:15.449Z,100425.63
2023-05-02T01:14:51.942Z,100422.44
2023-05-02T01:17:25.951Z,100428.63
2023-05-02T01:19:59.811Z,100427.78
2023-05-02T01:22:32.610Z,100420.66
2023-05-02T01:25:15.715Z,100418.34
2023-05-02T01:27:57.812Z,100415.81
2023-05-02T01:30:33.254Z,100422.28
2023-05-02T01:33:04.271Z,100424.81
2023-05-02T01:35:36.857Z,100418.53
2023-05-02T01:38:08.738Z,100410.94
2023-05-02T01:40:39.985Z,100402.13
2023-05-02T01:43:10.569Z,100398.63
2023-05-02T01:45:44.914Z,100392.59
2023-05-02T01:48:16.053Z,100394.69
2023-05-02T01:50:48.759Z,100396.75
2023-05-02T01:53:18.294Z,100391.97
2023-05-02T01:55:49.807Z,100387.53
2023-05-02T01:58:21.792Z,100390.06
2023-05-02T02:00:55.123Z,100383.16
2023-05-02T02:03:24.812Z,100376.72
2023-05-02T02:05:59.316Z,100380.81
2023-05-02T02:08:28.259Z,100377.63
2023-05-02T02:11:05.461Z,100365.66
2023-05-02T02:13:44.239Z,100374.47
2023-05-02T02:16:22.769Z,100375.94
2023-05-02T02:18:57.398Z,100369.47
2023-05-02T02:21:31.339Z,100367.31
2023-05-02T02:24:04.591Z,100370.03
2023-05-02T02:26:34.686Z,100372.03
2023-05-02T02:29:05.098Z,100362.25
2023-05-02T02:31:39.126Z,100371.38
2023-05-02T02:34:08.377Z,100361.81
2023-05-02T02:36:49.005Z,100368.47
2023-05-02T02:39:45.354Z,100367.84
2023-05-02T02:42:26.517Z,100360.97
2023-05-02T02:45:07.087Z,100366.03
2023-05-02T02:47:50.205Z,100362.13
2023-05-02T02:50:29.041Z,100358.84
2023-05-02T02:53:04.336Z,100360.63
2023-05-02T02:55:43.590Z,100358.84
2023-05-02T02:58:31.165Z,100362.78
2023-05-02T03:01:06.343Z,100354.81
2023-05-02T03:03:40.848Z,100358.59
2023-05-02T03:06:10.106Z,100361.94
2023-05-02T03:08:43.006Z,100356.69
2023-05-02T03:11:16.439Z,100349.97
2023-05-02T03:13:45.559Z,100357.75
2023-05-02T03:16:37.962Z,100354.16
2023-05-02T03:19:11.524Z,100361.31
2023-05-02T03:21:40.493Z,100351.72
2023-05-02T03:24:18.418Z,100357.53
2023-05-02T03:26:48.432Z,100351.25
2023-05-02T03:29:21.113Z,100351.25
2023-05-02T03:31:49.947Z,100355.03
2023-05-02T03:34:22.259Z,100356.16
2023-05-02T03:36:52.961Z,100355.88
2023-05-02T03:39:22.681Z,100351.44
2023-05-02T03:41:51.600Z,100358.84
2023-05-02T03:44:24.350Z,100353.38
2023-05-02T03:46:53.092Z,100351.44
2023-05-02T03:49:23.762Z,100353.00
2023-05-02T03:51:54.591Z,100356.09
2023-05-02T03:54:28.780Z,100368.47
2023-05-02T03:56:58.223Z,100360.59
2023-05-02T03:59:35.184Z,100356.81
2023-05-02T04:02:11.503Z,100356.81
2023-05-02T04:04:50.113Z,100364.41
2023-05-02T04:07:22.073Z,100368.06
2023-05-02T04:09:58.931Z,100365.25
2023-05-02T04:12:28.307Z,100360.81
2023-05-02T04:14:58.276Z,100363.91
2023-05-02T04:17:31.292Z,100364.66
2023-05-02T04:20:04.817Z,100361.03
2023-05-02T04:22:36.228Z,100354.84
2023-05-02T04:25:08.836Z,100364.00
2023-05-02T04:27:40.498Z,100360.63
2023-05-02T04:30:13.462Z,100363.34
2023-05-02T04:32:45.290Z,100364.09
2023-05-02T04:35:17.401Z,100356.66
2023-05-02T04:37:46.768Z,100363.19
2023-05-02T04:40:16.249Z,100360.47
2023-05-02T04:42:46.364Z,100371.50
2023-05-02T04:45:22.500Z,100364.16
2023-05-02T04:47:52.316Z,100366.78
2023-05-02T04:50:22.815Z,100368.16
2023-05-02T04:52:51.446Z,100363.69
2023-05-02T04:55:22.367Z,100362.19
2023-05-02T04:57:52.655Z,100358.94
2023-05-02T05:00:22.016Z,100368.22
2023-05-02T05:02:50.920Z,100362.94
2023-05-02T05:05:20.441Z,100358.56
2023-05-02T05:07:51.160Z,100363.81
2023-05-02T05:10:21.638Z,100364.66
2023-05-02T05:12:51.025Z,100353.28
2023-05-02T05:15:22.576Z,100347.81
2023-05-02T05:17:56.227Z,100349.25
2023-05-02T05:20:25.908Z,100350.91
2023-05-02T05:22:59.710Z,100347.13
2023-05-02T05:25:29.834Z,100355.78
2023-05-02T05:28:01.352Z,100356.38
2023-05-02T05:30:32.216Z,100355.00
2023-05-02T05:33:02.208Z,100350.91
2023-05-02T05:35:32.171Z,100350.25
2023-05-02T05:38:03.879Z,100348.28
2023-05-02T05:40:36.201Z,100342.78
2023-05-02T05:43:06.531Z,100346.25
2023-05-02T05:45:39.025Z,100358.72
2023-05-02T05:48:08.764Z,100349.59
2023-05-02T05:50:43.435Z,100349.66
2023-05-02T05:53:13.562Z,100346.78
2023-05-02T05:55:44.344Z,100346.09
2023-05-02T05:58:13.269Z,100344.13
2023-05-02T06:00:43.528Z,100343.69
2023-05-02T06:03:12.425Z,100338.53
2023-05-02T06:05:42.461Z,100343.81
2023-05-02T06:08:11.399Z,100339.22
2023-05-02T06:10:41.727Z,100336.25
2023-05-02T06:13:10.784Z,100351.19
2023-05-02T06:15:43.534Z,100346.03
2023-05-02T06:18:12.524Z,100354.09
2023-05-02T06:20:41.594Z,100352.94
2023-05-02T06:23:10.319Z,100349.28
2023-05-02T06:25:41.098Z,100358.81
2023-05-02T06:28:09.830Z,100362.06
2023-05-02T06:30:38.795Z,100361.31
2023-05-02T06:33:07.975Z,100365.75
2023-05-02T06:35:36.937Z,100350.63
2023-05-02T06:38:05.584Z,100360.28
2023-05-02T06:40:37.573Z,100358.59
2023-05-02T06:43:07.804Z,100358.03
2023-05-02T06:45:36.771Z,100342.78
2023-05-02T06:48:05.729Z,100348.97
2023-05-02T06:50:34.876Z,100353.50
2023-05-02T06:53:03.776Z,100352.38
2023-05-02T06:55:32.897Z,100355.22
2023-05-02T06:58:01.640Z,100369.81
2023-05-02T07:00:32.330Z,100360.47
2023-05-02T07:03:01.214Z,100363.69
2023-05-02T07:05:31.513Z,100360.13
2023-05-02T07:08:00.352Z,100364.25
2023-05-02T07:10:29.527Z,100354.16
2023-05-02T07:12:58.251Z,100360.16
2023-05-02T07:15:27.289Z,100365.72
2023-05-02T07:17:57.364Z,100367.72
2023-05-02T07:20:26.357Z,100357.22
2023-05-02T07:22:56.218Z,100366.41
2023-05-02T07:25:25.486Z,100362.56
2023-05-02T07:27:54.139Z,100374.75
2023-05-02T07:30:23.449Z,100363.22
2023-05-02T07:32:52.181Z,100367.50
2023-05-02T07:35:22.580Z,100366.50
2023-05-02T07:37:51.201Z,100362.31
2023-05-02T07:40:20.928Z,100360.97
2023-05-02T07:42:50.853Z,100360.44
2023-05-02T07:45:20.080Z,100354.13
2023-05-02T07:47:48.828Z,100355.59
2023-05-02T07:50:18.135Z,100370.41
2023-05-02T07:52:48.236Z,100368.41
2023-05-02T07:55:17.188Z,100375.69
2023-05-02T07:57:45.975Z,100377.84
2023-05-02T08:00:16.559Z,100380.44
2023-05-02T08:02:45.385Z,100378.63
2023-05-02T08:05:14.772Z,100384.34
2023-05-02T08:07:44.275Z,100381.16
2023-05-02T08:10:14.672Z,100381.66
2023-05-02T08:12:43.946Z,100387.88
2023-05-02T08:15:14.585Z,100385.56
2023-05-02T08:17:43.607Z,100382.69
2023-05-02T08:20:13.301Z,100376.09
2023-05-02T08:22:42.006Z,100375.25
2023-05-02T08:25:11.327Z,100385.97
2023-05-02T08:27:41.517Z,100377.91
2023-05-02T08:30:11.229Z,100385.06
2023-05-02T08:32:39.883Z,100392.31
2023-05-02T08:35:10.056Z,100387.41
2023-05-02T08:37:39.000Z,100404.72
2023-05-02T08:40:13.463Z,100401.38
2023-05-02T08:42:46.042Z,100408.09
2023-05-02T08:45:16.909Z,100402.66
2023-05-02T08:47:48.173Z,100403.25
2023-05-02T08:50:19.507Z,100404.53
2023-05-02T08:52:50.751Z,100413.25
2023-05-02T08:55:27.708Z,100410.25
2023-05-02T08:57:59.665Z,100413.78
2023-05-02T09:00:30.701Z,100411.47
2023-05-02T09:03:13.063Z,100403.31
2023-05-02T09:05:43.435Z,100417.13
2023-05-02T09:08:12.217Z,100408.16
2023-05-02T09:10:42.871Z,100405.56
2023-05-02T09:13:38.151Z,100411.94
2023-05-02T09:16:10.122Z,100412.31
2023-05-02T09:18:41.595Z,100406.13
2023-05-02T09:21:13.215Z,100421.75
2023-05-02T09:23:44.016Z,100422.03
2023-05-02T09:26:16.884Z,100417.31
2023-05-02T09:28:48.922Z,100428.41
2023-05-02T09:31:43.720Z,100429.13
2023-05-02T09:34:12.038Z,100436.78
2023-05-02T09:36:43.857Z,100440.22
2023-05-02T09:39:16.628Z,100433.41
2023-05-02T09:41:47.976Z,100434.81
2023-05-02T09:44:20.229Z,100450.28
2023-05-02T09:46:52.156Z,100438.56
2023-05-02T09:49:40.699Z,100448.88
2023-05-02T09:52:13.905Z,100440.88
2023-05-02T09:54:42.957Z,100450.94
2023-05-02T09:57:12.064Z,100455.81
2023-05-02T09:59:42.697Z,100450.91
2023-05-02T10:02:13.509Z,100458.34
2023-05-02T10:04:43.852Z,100457.06
2023-05-02T10:07:16.223Z,100458.69
2023-05-02T10:09:45.934Z,100470.44
2023-05-02T10:12:17.276Z,100470.00
2023-05-02T10:14:54.756Z,100473.63
2023-05-02T10:17:30.164Z,100479.56
2023-05-02T10:20:04.800Z,100482.69
2023-05-02T10:22:35.498Z,100484.00
2023-05-02T10:25:05.295Z,100487.72
2023-05-02T10:27:35.097Z,100489.28
2023-05-02T10:30:07.514Z,100482.25
2023-05-02T10:32:39.826Z,100492.28
2023-05-02T10:35:09.374Z,100494.13
2023-05-02T10:37:41.780Z,100501.94
2023-05-02T10:40:13.688Z,100499.59
2023-05-02T10:42:46.791Z,100510.75
2023-05-02T10:45:33.604Z,100514.50
2023-05-02T10:48:21.491Z,100514.66
2023-05-02T10:50:53.057Z,100529.16
2023-05-02T10:53:27.295Z,100527.88
2023-05-02T10:56:16.179Z,100534.72
2023-05-02T10:58:46.776Z,100529.13
2023-05-02T11:01:40.337Z,100546.16
2023-05-02T11:04:14.460Z,100549.84
2023-05-02T11:07:19.162Z,100559.38
2023-05-02T11:09:48.229Z,100557.81
2023-05-02T11:12:47.715Z,100571.81
2023-05-02T11:15:38.561Z,100580.78
2023-05-02T11:18:12.001Z,100581.25
2023-05-02T11:20:42.807Z,100594.16
2023-05-02T11:23:32.405Z,100600.75
2023-05-02T11:26:03.385Z,100600.34
2023-05-02T11:28:49.955Z,100607.03
2023-05-02T11:32:04.179Z,100615.59
2023-05-02T11:34:46.108Z,100613.34
2023-05-02T11:37:16.557Z,100613.56
2023-05-02T11:39:46.744Z,100615.06
2023-05-02T11:42:30.298Z,100622.22
2023-05-02T11:45:00.755Z,100621.63
2023-05-02T11:47:30.549Z,100622.59
2023-05-02T11:50:01.446Z,100627.91
2023-05-02T11:52:30.841Z,100626.53
2023-05-02T11:54:59.875Z,100618.09
2023-05-02T11:57:29.017Z,100622.31
2023-05-02T11:59:59.606Z,100632.13
2023-05-02T12:02:39.161Z,100634.88
2023-05-02T12:05:12.465Z,100642.44
2023-05-02T12:07:44.893Z,100638.47
2023-05-02T12:10:14.876Z,100639.59
2023-05-02T12:12:46.080Z,100630.31
2023-05-02T12:15:14.842Z,100627.91
2023-05-02T12:17:49.058Z,100634.41
2023-05-02T12:20:19.516Z,100629.09
2023-05-02T12:22:48.723Z,100636.03
2023-05-02T12:25:17.672Z,100638.16
2023-05-02T12:28:01.642Z,100641.63
2023-05-02T12:30:31.632Z,100636.78
2023-05-02T12:33:02.854Z,100649.47
2023-05-02T12:35:34.582Z,100643.75
2023-05-02T12:38:16.032Z,100625.34
2023-05-02T12:40:51.162Z,100647.06
2023-05-02T12:43:22.084Z,100649.94
2023-05-02T12:45:54.368Z,100651.13
2023-05-02T12:48:26.439Z,100656.41
2023-05-02T12:50:57.047Z,100653.66
2023-05-02T12:53:43.866Z,100650.47
2023-05-02T12:56:13.487Z,100659.72
2023-05-02T12:58:44.912Z,100658.06
2023-05-02T13:01:14.012Z,100663.91
2023-05-02T13:03:44.537Z,100671.06
2023-05-02T13:06:15.051Z,100672.00
2023-05-02T13:08:44.074Z,100675.63
2023-05-02T13:11:13.069Z,100676.78
2023-05-02T13:13:41.962Z,100671.31
2023-05-02T13:16:10.885Z,100681.50
2023-05-02T13:18:39.916Z,100683.19
2023-05-02T13:21:08.591Z,100677.41
2023-05-02T13:23:39.938Z,100680.06
2023-05-02T13:26:09.077Z,100677.31
2023-05-02T13:28:37.993Z,100672.72
2023-05-02T13:31:06.783Z,100679.00
2023-05-02T13:33:35.832Z,100667.59
2023-05-02T13:36:04.725Z,100677.69
2023-05-02T13:38:34.753Z,100673.63
2023-05-02T13:41:05.320Z,100674.19
2023-05-02T13:43:34.324Z,100674.19
2023-05-02T13:46:03.104Z,100672.34
2023-05-02T13:48:32.046Z,100678.44
2023-05-02T13:51:00.775Z,100669.75
2023-05-02T13:53:29.730Z,100688.56
2023-05-02T13:55:58.413Z,100682.41
2023-05-02T13:58:28.737Z,100685.00
2023-05-02T14:00:57.946Z,100686.53
2023-05-02T14:03:26.994Z,100689.91
2023-05-02T14:05:55.842Z,100693.53
2023-05-02T14:08:24.864Z,100689.81
2023-05-02T14:10:53.543Z,100692.06
2023-05-02T14:13:22.414Z,100693.03
2023-05-02T14:15:52.670Z,100680.72
2023-05-02T14:18:22.042Z,100683.09
2023-05-02T14:20:50.811Z,100689.81
2023-05-02T14:23:19.722Z,100686.34
2023-05-02T14:25:48.403Z,100686.34
2023-05-02T14:28:17.313Z,100688.69
2023-05-02T14:30:46.038Z,100687.34
2023-05-02T14:33:16.607Z,100697.50
2023-05-02T14:35:45.832Z,100695.41
2023-05-02T14:38:14.779Z,100688.34
2023-05-02T14:40:44.661Z,100694.13
2023-05-02T14:43:14.004Z,100690.41
2023-05-02T14:45:42.707Z,100686.03
2023-05-02T14:48:14.076Z,100689.97
2023-05-02T14:50:44.307Z,100693.47
2023-05-02T14:53:13.338Z,100692.28
2023-05-02T14:55:42.298Z,100692.41
2023-05-02T14:58:11.973Z,100699.22
2023-05-02T15:00:40.686Z,100693.34
2023-05-02T15:03:10.943Z,100697.28
2023-05-02T15:05:40.167Z,100699.56
2023-05-02T15:08:10.675Z,100697.03
2023-05-02T15:10:39.804Z,100700.84
2023-05-02T15:13:08.979Z,100696.50
2023-05-02T15:15:37.824Z,100696.50
2023-05-02T15:18:07.137Z,100690.88
2023-05-02T15:20:36.778Z,100694.16
2023-05-02T15:23:05.766Z,100699.13
2023-05-02T15:25:35.815Z,100697.72
2023-05-02T15:28:05.020Z,100687.59
2023-05-02T15:30:33.643Z,100686.38
2023-05-02T15:33:03.387Z,100695.34
2023-05-02T15:35:32.530Z,100679.50
2023-05-02T15:38:01.656Z,100683.56
2023-05-02T15:40:30.229Z,100678.22
2023-05-02T15:43:00.545Z,100677.84
2023-05-02T15:45:29.252Z,100677.03
2023-05-02T15:47:58.342Z,100678.38
2023-05-02T15:50:27.044Z,100678.22
2023-05-02T15:52:56.012Z,100677.47
2023-05-02T15:55:24.678Z,100676.47
2023-05-02T15:57:53.838Z,100684.19
2023-05-02T16:00:24.229Z,100680.22
2023-05-02T16:02:53.379Z,100671.22
2023-05-02T16:05:22.189Z,100676.94
2023-05-02T16:07:51.123Z,100691.00
2023-05-02T16:10:20.075Z,100686.34
2023-05-02T16:12:49.123Z,100683.66
2023-05-02T16:15:17.952Z,100689.69
2023-05-02T16:17:49.061Z,100683.09
2023-05-02T16:20:18.425Z,100690.56
2023-05-02T16:22:48.510Z,100692.41
2023-05-02T16:25:18.737Z,100694.78
2023-05-02T16:27:48.132Z,100690.88
2023-05-02T16:30:17.100Z,100697.75
2023-05-02T16:32:47.510Z,100702.06
2023-05-02T16:35:16.265Z,100702.53
2023-05-02T16:37:45.211Z,100701.97
2023-05-02T16:40:14.800Z,100702.16
2023-05-02T16:42:43.765Z,100695.97
2023-05-02T16:45:12.673Z,100705.56
2023-05-02T16:47:41.707Z,100703.06
2023-05-02T16:50:12.589Z,100707.16
2023-05-02T16:52:41.727Z,100703.97
2023-05-02T16:55:10.337Z,100717.16
2023-05-02T16:57:39.342Z,100706.09
2023-05-02T17:00:12.439Z,100707.91
2023-05-02T17:02:41.842Z,100712.69
2023-05-02T17:05:12.301Z,100717.50
2023-05-02T17:07:41.332Z,100711.78
2023-05-02T17:10:11.748Z,100713.06
2023-05-02T17:12:40.717Z,100712.00
2023-05-02T17:15:10.503Z,100715.09
2023-05-02T17:17:39.534Z,100716.50
2023-05-02T17:20:11.538Z,100718.47
2023-05-02T17:22:41.713Z,100718.94
2023-05-02T17:25:11.801Z,100713.22
2023-05-02T17:27:41.340Z,100713.94
2023-05-02T17:30:11.312Z,100715.09
2023-05-02T17:32:40.542Z,100717.47
2023-05-02T17:35:11.685Z,100720.53
2023-05-02T17:37:41.059Z,100719.44
2023-05-02T17:40:11.107Z,100719.06
2023-05-02T17:42:40.197Z,100723.09
2023-05-02T17:45:11.118Z,100722.69
2023-05-02T17:47:40.237Z,100724.25
2023-05-02T17:50:11.706Z,100726.66
2023-05-02T17:52:40.812Z,100729.91
2023-05-02T17:55:10.337Z,100730.44
2023-05-02T17:57:39.285Z,100737.19
2023-05-02T18:00:09.883Z,100741.22
2023-05-02T18:02:39.933Z,100743.63
2023-05-02T18:05:09.582Z,100738.59
2023-05-02T18:07:39.855Z,100740.97
2023-05-02T18:10:09.678Z,100741.38
2023-05-02T18:12:38.631Z,100740.78
2023-05-02T18:15:09.221Z,100744.72
2023-05-02T18:17:38.519Z,100745.94
2023-05-02T18:20:10.129Z,100743.69
2023-05-02T18:22:40.682Z,100750.28
2023-05-02T18:25:09.641Z,100759.53
2023-05-02T18:27:38.596Z,100766.06
2023-05-02T18:30:09.391Z,100776.84
2023-05-02T18:32:38.434Z,100778.63
2023-05-02T18:35:11.174Z,100784.06
2023-05-02T18:37:41.634Z,100778.06
2023-05-02T18:40:11.216Z,100785.72
2023-05-02T18:42:40.302Z,100787.28
2023-05-02T18:45:09.660Z,100790.53
2023-05-02T18:47:38.723Z,100800.88
2023-05-02T18:50:09.420Z,100799.75
2023-05-02T18:52:38.508Z,100798.78
2023-05-02T18:55:09.447Z,100809.28
2023-05-02T18:57:38.413Z,100808.59
2023-05-02T19:00:09.162Z,100811.09
2023-05-02T19:02:38.341Z,100808.28
2023-05-02T19:05:07.702Z,100815.16
2023-05-02T19:07:38.503Z,100818.09
2023-05-02T19:10:11.074Z,100824.25
2023-05-02T19:12:41.848Z,100829.41
2023-05-02T19:15:12.553Z,100836.81
2023-05-02T19:17:41.562Z,100839.88
2023-05-02T19:20:12.719Z,100843.91
2023-05-02T19:22:42.672Z,100845.88
2023-05-02T19:25:13.126Z,100853.97
2023-05-02T19:27:42.604Z,100857.03
2023-05-02T19:30:13.641Z,100852.00
2023-05-02T19:32:42.846Z,100860.34
2023-05-02T19:35:11.949Z,100870.09
2023-05-02T19:37:40.917Z,100881.34
2023-05-02T19:40:12.908Z,100882.13
2023-05-02T19:42:41.911Z,100893.38
2023-05-02T19:45:13.840Z,100893.94
2023-05-02T19:47:45.595Z,100903.59
2023-05-02T19:50:14.388Z,100907.78
2023-05-02T19:52:44.532Z,100894.66
2023-05-02T19:55:16.187Z,100908.22
2023-05-02T19:57:45.263Z,100912.13
2023-05-02T20:00:15.086Z,100911.75
2023-05-02T20:02:44.484Z,100919.72
2023-05-02T20:05:13.420Z,100925.50
2023-05-02T20:07:44.554Z,100925.50
2023-05-02T20:10:14.875Z,100929.38
2023-05-02T20:12:44.955Z,100937.91
2023-05-02T20:15:13.769Z,100933.34
2023-05-02T20:17:42.863Z,100937.22
2023-05-02T20:20:13.056Z,100941.06
2023-05-02T20:22:42.169Z,100944.31
2023-05-02T20:25:12.715Z,100951.78
2023-05-02T20:27:43.234Z,100953.00
2023-05-02T20:30:12.908Z,100960.19
2023-05-02T20:32:41.879Z,100957.66
2023-05-02T20:35:11.715Z,100965.47
2023-05-02T20:37:40.802Z,100964.56
2023-05-02T20:40:10.863Z,100966.09
2023-05-02T20:42:42.530Z,100975.00
2023-05-02T20:45:14.580Z,100979.69
2023-05-02T20:47:43.601Z,100970.41
2023-05-02T20:50:12.552Z,100969.69
2023-05-02T20:52:41.597Z,100974.25
2023-05-02T20:55:10.953Z,100966.69
2023-05-02T20:57:40.089Z,100977.28
2023-05-02T21:00:11.434Z,100980.03
2023-05-02T21:02:42.062Z,100983.50
2023-05-02T21:05:11.034Z,100986.34
2023-05-02T21:07:40.523Z,100994.13
2023-05-02T21:10:11.241Z,100992.78
2023-05-02T21:12:40.677Z,100989.19
2023-05-02T21:15:10.384Z,100992.41
2023-05-02T21:17:41.835Z,100995.63
2023-05-02T21:20:11.517Z,100989.38
2023-05-02T21:22:41.958Z,101001.38
2023-05-02T21:25:11.748Z,101011.13
2023-05-02T21:27:40.684Z,101017.47
2023-05-02T21:30:11.013Z,101027.53
2023-05-02T21:32:41.375Z,101035.06
2023-05-02T21:35:10.708Z,101034.47
2023-05-02T21:37:39.711Z,101039.94
2023-05-02T21:40:10.009Z,101046.19
2023-05-02T21:42:39.058Z,101041.94
2023-05-02T21:45:09.821Z,101038.66
2023-05-02T21:47:38.883Z,101048.53
2023-05-02T21:50:09.975Z,101053.41
2023-05-02T21:52:39.023Z,101063.06
2023-05-02T21:55:09.129Z,101056.91
2023-05-02T21:57:38.039Z,101059.06
2023-05-02T22:00:09.056Z,101066.34
2023-05-02T22:02:38.020Z,101073.97
2023-05-02T22:05:09.027Z,101073.41
2023-05-02T22:07:38.170Z,101073.22
2023-05-02T22:10:08.375Z,101074.25
2023-05-02T22:12:37.397Z,101065.13
2023-05-02T22:15:08.877Z,101069.56
2023-05-02T22:17:37.970Z,101080.38
2023-05-02T22:20:13.083Z,101078.72
2023-05-02T22:22:42.380Z,101076.00
2023-05-02T22:25:11.431Z,101072.13
2023-05-02T22:27:40.436Z,101081.81
2023-05-02T22:30:11.466Z,101081.91
2023-05-02T22:32:41.294Z,101085.19
2023-05-02T22:35:11.949Z,101085.94
2023-05-02T22:37:40.968Z,101079.84
2023-05-02T22:40:11.435Z,101079.75
2023-05-02T22:42:40.376Z,101076.63
2023-05-02T22:45:11.064Z,101075.81
2023-05-02T22:47:40.112Z,101093.34
2023-05-02T22:50:11.362Z,101087.25
2023-05-02T22:52:40.954Z,101093.34
2023-05-02T22:55:10.875Z,101099.78
2023-05-02T22:57:40.449Z,101094.28
2023-05-02T23:00:11.423Z,101097.69
2023-05-02T23:02:40.498Z,101102.19
2023-05-02T23:05:11.099Z,101106.72
2023-05-02T23:07:40.243Z,101101.72
2023-05-02T23:10:10.429Z,101101.00
2023-05-02T23:12:40.304Z,101101.47
2023-05-02T23:15:11.253Z,101112.19
2023-05-02T23:17:42.094Z,101104.50
2023-05-02T23:20:13.176Z,101110.69
2023-05-02T23:22:46.744Z,101111.63
2023-05-02T23:25:16.813Z,101105.53
2023-05-02T23:27:45.790Z,101101.09
2023-05-02T23:30:14.786Z,101108.06
2023-05-02T23:32:43.875Z,101110.78
2023-05-02T23:35:14.262Z,101111.63
2023-05-02T23:37:44.163Z,101111.34
2023-05-02T23:40:13.461Z,101113.25
2023-05-02T23:42:42.996Z,101116.72
2023-05-02T23:45:13.351Z,101119.75
2023-05-02T23:47:42.404Z,101129.44
2023-05-02T23:50:13.041Z,101126.88
2023-05-02T23:52:41.982Z,101137.66
2023-05-02T23:55:11.173Z,101140.28
2023-05-02T23:57:40.214Z,101135.13
